createdAt,value
2023-02-12T00:00:44.306Z,8.07
2023-02-12T00:03:11.045Z,8.25
2023-02-12T00:05:38.909Z,8.30
2023-02-12T00:08:05.665Z,8.38
2023-02-12T00:10:38.839Z,8.60
2023-02-12T00:13:05.842Z,8.27
2023-02-12T00:15:32.212Z,7.97
2023-02-12T00:17:58.557Z,7.93
2023-02-12T00:20:24.936Z,7.85
2023-02-12T00:22:52.560Z,7.43
2023-02-12T00:25:19.246Z,8.45
2023-02-12T00:27:45.779Z,9.77
2023-02-12T00:30:12.483Z,9.00
2023-02-12T00:32:38.873Z,9.38
2023-02-12T00:35:05.385Z,9.37
2023-02-12T00:37:31.843Z,9.43
2023-02-12T00:39:58.200Z,9.60
2023-02-12T00:42:24.528Z,9.48
2023-02-12T00:44:50.930Z,8.98
2023-02-12T00:47:17.255Z,9.53
2023-02-12T00:49:43.646Z,9.85
2023-02-12T00:52:09.988Z,10.40
2023-02-12T00:54:36.432Z,10.20
2023-02-12T00:57:06.443Z,9.95
2023-02-12T00:59:36.086Z,9.57
2023-02-12T01:02:02.469Z,9.73
2023-02-12T01:04:28.791Z,9.82
2023-02-12T01:06:55.394Z,10.65
2023-02-12T01:09:21.983Z,10.68
2023-02-12T01:11:48.332Z,10.37
2023-02-12T01:14:14.639Z,9.38
2023-02-12T01:16:41.144Z,10.55
2023-02-12T01:19:07.477Z,10.13
2023-02-12T01:21:36.581Z,10.85
2023-02-12T01:24:03.248Z,8.97
2023-02-12T01:26:31.012Z,11.02
2023-02-12T01:29:01.334Z,11.27
2023-02-12T01:31:30.414Z,10.85
2023-02-12T01:33:59.811Z,10.63
2023-02-12T01:36:27.796Z,10.57
2023-02-12T01:38:54.810Z,10.05
2023-02-12T01:41:27.425Z,11.20
2023-02-12T01:44:22.777Z,9.80
2023-02-12T01:47:00.210Z,10.35
2023-02-12T01:49:31.690Z,10.67
2023-02-12T01:52:05.224Z,9.93
2023-02-12T01:54:34.169Z,10.45
2023-02-12T01:57:02.634Z,9.80
2023-02-12T01:59:30.867Z,9.95
2023-02-12T02:01:57.787Z,10.60
2023-02-12T02:04:29.276Z,10.10
2023-02-12T02:07:06.476Z,10.55
2023-02-12T02:09:35.995Z,9.48
2023-02-12T02:12:21.058Z,11.02
2023-02-12T02:14:49.197Z,10.67
2023-02-12T02:17:34.356Z,9.15
2023-02-12T02:20:01.495Z,9.88
2023-02-12T02:22:37.841Z,10.35
2023-02-12T02:25:28.658Z,10.73
2023-02-12T02:28:16.885Z,10.43
2023-02-12T02:31:00.733Z,11.10
2023-02-12T02:33:34.406Z,10.10
2023-02-12T02:36:09.630Z,10.93
2023-02-12T02:38:44.292Z,11.32
2023-02-12T02:41:23.743Z,10.77
2023-02-12T02:43:52.389Z,9.00
2023-02-12T02:46:32.599Z,10.82
2023-02-12T02:49:04.576Z,10.38
2023-02-12T02:51:36.260Z,10.07
2023-02-12T02:54:13.682Z,10.50
2023-02-12T02:56:44.876Z,10.05
2023-02-12T02:59:37.521Z,11.23
2023-02-12T03:02:13.779Z,10.60
2023-02-12T03:04:47.928Z,8.30
2023-02-12T03:07:26.008Z,9.70
2023-02-12T03:10:12.102Z,9.75
2023-02-12T03:12:44.963Z,10.10
2023-02-12T03:15:19.394Z,10.70
2023-02-12T03:17:47.884Z,9.35
2023-02-12T03:20:22.661Z,8.93
2023-02-12T03:22:54.582Z,8.52
2023-02-12T03:25:28.390Z,9.77
2023-02-12T03:28:02.437Z,9.50
2023-02-12T03:30:42.073Z,10.23
2023-02-12T03:33:19.587Z,10.73
2023-02-12T03:36:02.457Z,11.70
2023-02-12T03:38:41.850Z,10.88
2023-02-12T03:41:15.139Z,11.38
2023-02-12T03:44:02.009Z,11.50
2023-02-12T03:46:50.697Z,10.10
2023-02-12T03:49:27.258Z,11.73
2023-02-12T03:51:53.947Z,12.35
2023-02-12T03:54:21.860Z,11.07
2023-02-12T03:57:09.836Z,12.10
2023-02-12T03:59:38.249Z,11.07
2023-02-12T04:02:05.045Z,10.80
2023-02-12T04:04:32.238Z,9.82
2023-02-12T04:06:58.997Z,10.80
2023-02-12T04:09:27.773Z,11.02
2023-02-12T04:12:26.877Z,12.27
2023-02-12T04:15:16.027Z,10.90
2023-02-12T04:17:51.522Z,12.05
2023-02-12T04:20:50.327Z,11.98
2023-02-12T04:23:25.809Z,11.98
2023-02-12T04:26:23.795Z,12.20
2023-02-12T04:29:10.133Z,13.18
2023-02-12T04:31:44.163Z,11.82
2023-02-12T04:34:30.739Z,11.55
2023-02-12T04:37:04.078Z,11.63
2023-02-12T04:39:34.341Z,11.37
2023-02-12T04:42:02.021Z,11.15
2023-02-12T04:44:33.789Z,10.05
2023-02-12T04:47:00.697Z,9.80
2023-02-12T04:49:27.620Z,9.90
2023-02-12T04:51:54.031Z,9.53
2023-02-12T04:54:21.327Z,10.80
2023-02-12T04:56:48.264Z,9.40
2023-02-12T04:59:15.153Z,9.80
2023-02-12T05:01:43.021Z,9.20
2023-02-12T05:04:12.372Z,8.60
2023-02-12T05:06:39.516Z,10.90
2023-02-12T05:09:07.585Z,9.93
2023-02-12T05:11:33.931Z,11.32
2023-02-12T05:14:00.674Z,12.55
2023-02-12T05:16:27.395Z,11.50
2023-02-12T05:18:53.729Z,12.50
2023-02-12T05:21:20.038Z,12.80
2023-02-12T05:23:46.397Z,12.20
2023-02-12T05:26:22.062Z,11.68
2023-02-12T05:28:48.488Z,12.33
2023-02-12T05:31:20.769Z,12.52
2023-02-12T05:33:48.771Z,13.27
2023-02-12T05:36:18.325Z,12.38
2023-02-12T05:38:44.692Z,12.77
2023-02-12T05:41:14.121Z,13.07
2023-02-12T05:43:46.067Z,13.07
2023-02-12T05:46:14.296Z,11.38
2023-02-12T05:48:41.153Z,11.35
2023-02-12T05:51:10.663Z,10.98
2023-02-12T05:53:38.311Z,10.73
2023-02-12T05:56:26.103Z,10.93
2023-02-12T05:58:55.787Z,10.65
2023-02-12T06:01:27.809Z,11.52
2023-02-12T06:03:55.069Z,10.68
2023-02-12T06:06:21.819Z,12.47
2023-02-12T06:08:49.278Z,12.38
2023-02-12T06:11:16.791Z,12.15
2023-02-12T06:13:43.992Z,11.90
2023-02-12T06:16:22.382Z,13.38
2023-02-12T06:18:49.609Z,13.30
2023-02-12T06:21:16.808Z,11.75
2023-02-12T06:23:43.354Z,12.70
2023-02-12T06:26:10.301Z,12.68
2023-02-12T06:28:36.846Z,12.90
2023-02-12T06:31:03.474Z,12.47
2023-02-12T06:33:32.544Z,12.88
2023-02-12T06:36:03.500Z,12.65
2023-02-12T06:38:29.817Z,12.48
2023-02-12T06:40:56.168Z,12.65
2023-02-12T06:43:22.521Z,11.67
2023-02-12T06:45:48.866Z,10.82
2023-02-12T06:48:15.185Z,12.15
2023-02-12T06:50:41.482Z,10.70
2023-02-12T06:53:07.903Z,12.60
2023-02-12T06:55:34.788Z,11.03
2023-02-12T06:58:01.097Z,11.63
2023-02-12T07:00:27.740Z,11.60
2023-02-12T07:02:55.604Z,11.43
2023-02-12T07:05:23.169Z,11.55
2023-02-12T07:07:49.700Z,11.63
2023-02-12T07:10:17.203Z,12.82
2023-02-12T07:12:43.610Z,11.05
2023-02-12T07:15:15.457Z,10.88
2023-02-12T07:17:42.051Z,12.05
2023-02-12T07:20:08.875Z,10.63
2023-02-12T07:22:38.423Z,11.52
2023-02-12T07:25:05.223Z,11.23
2023-02-12T07:27:31.611Z,12.40
2023-02-12T07:29:57.953Z,10.38
2023-02-12T07:32:24.314Z,11.53
2023-02-12T07:34:50.679Z,10.75
2023-02-12T07:37:22.401Z,10.07
2023-02-12T07:39:49.497Z,10.82
2023-02-12T07:42:15.838Z,12.43
2023-02-12T07:44:42.128Z,12.17
2023-02-12T07:47:08.464Z,12.65
2023-02-12T07:49:34.984Z,13.07
2023-02-12T07:52:03.158Z,12.48
2023-02-12T07:54:34.016Z,12.20
2023-02-12T07:57:00.639Z,11.87
2023-02-12T07:59:27.030Z,12.25
2023-02-12T08:01:53.675Z,11.90
2023-02-12T08:04:25.174Z,11.57
2023-02-12T08:06:54.234Z,10.93
2023-02-12T08:09:30.879Z,10.93
2023-02-12T08:11:58.168Z,12.13
2023-02-12T08:14:24.765Z,10.45
2023-02-12T08:16:51.661Z,11.43
2023-02-12T08:19:22.554Z,12.05
2023-02-12T08:21:52.829Z,12.23
2023-02-12T08:24:20.035Z,10.70
2023-02-12T08:26:46.842Z,11.70
2023-02-12T08:29:16.473Z,11.35
2023-02-12T08:31:47.576Z,11.05
2023-02-12T08:34:25.577Z,10.70
2023-02-12T08:36:56.509Z,10.90
2023-02-12T08:39:24.686Z,11.18
2023-02-12T08:41:51.892Z,10.43
2023-02-12T08:44:18.515Z,10.80
2023-02-12T08:46:46.974Z,11.90
2023-02-12T08:49:18.986Z,11.95
2023-02-12T08:51:50.741Z,11.48
2023-02-12T08:54:21.194Z,11.68
2023-02-12T08:56:47.610Z,12.65
2023-02-12T08:59:15.169Z,12.97
2023-02-12T09:01:42.796Z,11.90
2023-02-12T09:04:18.674Z,12.10
2023-02-12T09:06:46.552Z,11.95
2023-02-12T09:09:13.793Z,11.70
2023-02-12T09:11:41.097Z,13.50
2023-02-12T09:14:10.830Z,12.00
2023-02-12T09:16:39.600Z,12.63
2023-02-12T09:19:06.686Z,11.90
2023-02-12T09:21:33.411Z,12.88
2023-02-12T09:24:01.406Z,12.70
2023-02-12T09:26:27.777Z,12.02
2023-02-12T09:28:54.968Z,12.38
2023-02-12T09:31:29.675Z,13.05
2023-02-12T09:34:00.533Z,12.15
2023-02-12T09:36:28.022Z,13.03
2023-02-12T09:38:54.768Z,13.77
2023-02-12T09:41:26.770Z,15.02
2023-02-12T09:44:11.831Z,15.25
2023-02-12T09:46:38.139Z,16.20
2023-02-12T09:49:10.276Z,15.90
2023-02-12T09:51:39.994Z,17.15
2023-02-12T09:54:11.730Z,16.27
2023-02-12T09:56:41.604Z,15.10
2023-02-12T09:59:08.834Z,15.50
2023-02-12T10:01:35.669Z,14.37
2023-02-12T10:04:04.872Z,14.55
2023-02-12T10:06:41.631Z,15.10
2023-02-12T10:09:29.197Z,14.38
2023-02-12T10:12:19.082Z,13.73
2023-02-12T10:15:02.788Z,14.07
2023-02-12T10:17:48.813Z,13.20
2023-02-12T10:20:31.582Z,13.18
2023-02-12T10:23:08.068Z,12.75
2023-02-12T10:26:01.275Z,13.02
2023-02-12T10:28:39.236Z,12.77
2023-02-12T10:31:12.959Z,14.15
2023-02-12T10:33:43.812Z,13.45
2023-02-12T10:36:25.112Z,12.93
2023-02-12T10:38:58.245Z,13.35
2023-02-12T10:41:28.172Z,12.17
2023-02-12T10:43:54.539Z,13.23
2023-02-12T10:46:20.898Z,13.25
2023-02-12T10:48:54.011Z,13.50
2023-02-12T10:51:56.531Z,13.57
2023-02-12T10:54:49.065Z,13.23
2023-02-12T10:57:27.407Z,13.43
2023-02-12T10:59:57.344Z,13.30
2023-02-12T11:02:30.870Z,13.35
2023-02-12T11:04:59.175Z,13.65
2023-02-12T11:07:27.432Z,13.60
2023-02-12T11:09:55.716Z,13.15
2023-02-12T11:12:48.002Z,13.07
2023-02-12T11:15:17.584Z,13.93
2023-02-12T11:17:55.001Z,13.00
2023-02-12T11:20:28.156Z,12.57
2023-02-12T11:23:03.920Z,12.38
2023-02-12T11:25:34.023Z,13.00
2023-02-12T11:28:19.056Z,13.20
2023-02-12T11:31:22.263Z,12.52
2023-02-12T11:34:12.094Z,13.23
2023-02-12T11:36:44.893Z,12.68
2023-02-12T11:39:22.862Z,13.63
2023-02-12T11:41:53.659Z,12.82
2023-02-12T11:44:35.302Z,12.38
2023-02-12T11:47:16.587Z,11.60
2023-02-12T11:49:59.678Z,12.48
2023-02-12T11:52:31.125Z,11.93
2023-02-12T11:55:01.359Z,11.90
2023-02-12T11:57:49.682Z,12.30
2023-02-12T12:00:42.075Z,12.80
2023-02-12T12:03:11.304Z,11.43
2023-02-12T12:05:45.890Z,12.50
2023-02-12T12:08:29.689Z,12.93
2023-02-12T12:11:11.068Z,12.52
2023-02-12T12:13:44.501Z,11.57
2023-02-12T12:16:34.694Z,10.93
2023-02-12T12:19:34.754Z,10.88
2023-02-12T12:22:09.227Z,10.82
2023-02-12T12:24:53.425Z,11.30
2023-02-12T12:27:58.571Z,10.77
2023-02-12T12:30:40.763Z,10.52
2023-02-12T12:33:19.904Z,11.00
2023-02-12T12:36:32.776Z,10.75
2023-02-12T12:39:05.282Z,10.98
2023-02-12T12:41:47.935Z,10.90
2023-02-12T12:44:57.147Z,11.50
2023-02-12T12:47:40.509Z,11.68
2023-02-12T12:50:12.813Z,10.60
2023-02-12T12:52:51.159Z,11.30
2023-02-12T12:55:32.865Z,10.37
2023-02-12T12:58:28.249Z,10.45
2023-02-12T13:01:18.888Z,9.52
2023-02-12T13:04:37.419Z,9.70
2023-02-12T13:07:19.937Z,10.45
2023-02-12T13:09:49.977Z,9.33
2023-02-12T13:12:37.174Z,9.93
2023-02-12T13:15:37.620Z,9.90
2023-02-12T13:18:14.205Z,8.95
2023-02-12T13:20:49.669Z,8.60
2023-02-12T13:23:45.905Z,10.07
2023-02-12T13:26:23.881Z,10.75
2023-02-12T13:28:59.008Z,10.18
2023-02-12T13:31:33.385Z,9.52
2023-02-12T13:34:07.373Z,10.07
2023-02-12T13:36:40.624Z,9.23
2023-02-12T13:39:15.625Z,10.80
2023-02-12T13:41:47.897Z,9.65
2023-02-12T13:44:32.516Z,9.38
2023-02-12T13:47:40.784Z,9.55
2023-02-12T13:50:32.507Z,9.53
2023-02-12T13:53:06.544Z,9.75
2023-02-12T13:56:01.998Z,9.82
2023-02-12T13:58:31.645Z,9.80
2023-02-12T14:01:04.458Z,8.95
2023-02-12T14:03:31.845Z,8.97
2023-02-12T14:06:20.360Z,9.10
2023-02-12T14:08:51.195Z,8.57
2023-02-12T14:11:20.576Z,8.38
2023-02-12T14:13:58.554Z,8.70
2023-02-12T14:16:30.827Z,9.57
2023-02-12T14:19:34.546Z,8.60
2023-02-12T14:22:02.488Z,8.48
2023-02-12T14:24:38.107Z,8.48
2023-02-12T14:27:21.050Z,8.48
2023-02-12T14:30:21.422Z,8.03
2023-02-12T14:32:53.317Z,7.22
2023-02-12T14:35:35.195Z,7.53
2023-02-12T14:38:03.342Z,7.15
2023-02-12T14:40:33.074Z,7.57
2023-02-12T14:43:01.081Z,7.67
2023-02-12T14:45:45.613Z,7.80
2023-02-12T14:48:50.331Z,8.13
2023-02-12T14:51:41.178Z,9.20
2023-02-12T14:54:16.223Z,7.80
2023-02-12T14:56:48.817Z,7.97
2023-02-12T14:59:20.351Z,8.35
2023-02-12T15:01:48.116Z,9.00
2023-02-12T15:04:29.045Z,8.23
2023-02-12T15:07:20.442Z,8.40
2023-02-12T15:09:52.465Z,8.00
2023-02-12T15:12:26.357Z,9.45
2023-02-12T15:15:24.058Z,9.23
2023-02-12T15:18:17.031Z,7.40
2023-02-12T15:20:53.830Z,8.98
2023-02-12T15:23:50.083Z,8.57
2023-02-12T15:26:19.242Z,8.73
2023-02-12T15:28:48.342Z,8.52
2023-02-12T15:31:22.578Z,8.85
2023-02-12T15:33:51.205Z,8.93
2023-02-12T15:36:21.685Z,6.60
2023-02-12T15:38:56.971Z,8.43
2023-02-12T15:41:34.234Z,8.55
2023-02-12T15:44:04.284Z,8.30
2023-02-12T15:46:30.723Z,8.27
2023-02-12T15:48:57.938Z,8.77
2023-02-12T15:51:34.804Z,7.93
2023-02-12T15:54:05.122Z,7.68
2023-02-12T15:56:33.801Z,7.63
2023-02-12T15:59:01.989Z,7.55
2023-02-12T16:01:32.082Z,7.80
2023-02-12T16:04:01.261Z,8.20
2023-02-12T16:06:31.527Z,7.80
2023-02-12T16:09:26.042Z,8.30
2023-02-12T16:11:52.626Z,9.07
2023-02-12T16:14:23.583Z,9.83
2023-02-12T16:16:52.792Z,8.23
2023-02-12T16:19:37.118Z,8.70
2023-02-12T16:22:08.682Z,7.90
2023-02-12T16:24:38.801Z,8.50
2023-02-12T16:27:18.602Z,8.50
2023-02-12T16:29:49.321Z,8.43
2023-02-12T16:32:38.393Z,7.72
2023-02-12T16:35:10.690Z,7.65
2023-02-12T16:37:36.987Z,8.85
2023-02-12T16:40:12.743Z,8.30
2023-02-12T16:42:56.377Z,8.35
2023-02-12T16:45:30.870Z,8.63
2023-02-12T16:48:04.044Z,8.73
2023-02-12T16:50:33.068Z,8.07
2023-02-12T16:53:04.989Z,7.87
2023-02-12T16:55:31.890Z,8.43
2023-02-12T16:57:58.241Z,9.00
2023-02-12T17:00:24.719Z,8.35
2023-02-12T17:02:51.055Z,7.50
2023-02-12T17:05:18.391Z,9.47
2023-02-12T17:07:44.746Z,7.78
2023-02-12T17:10:17.509Z,8.90
2023-02-12T17:12:52.661Z,9.18
2023-02-12T17:15:30.256Z,8.05
2023-02-12T17:17:56.627Z,8.27
2023-02-12T17:20:22.958Z,9.07
2023-02-12T17:22:53.293Z,7.63
2023-02-12T17:25:20.483Z,8.05
2023-02-12T17:27:46.794Z,8.55
2023-02-12T17:30:19.583Z,8.60
2023-02-12T17:32:46.074Z,9.18
2023-02-12T17:35:12.878Z,9.15
2023-02-12T17:37:39.270Z,7.40
2023-02-12T17:40:06.826Z,7.90
2023-02-12T17:42:33.428Z,8.00
2023-02-12T17:44:59.853Z,8.27
2023-02-12T17:47:26.238Z,8.13
2023-02-12T17:49:52.577Z,8.88
2023-02-12T17:52:18.982Z,8.48
2023-02-12T17:54:45.777Z,8.33
2023-02-12T17:57:13.049Z,9.43
2023-02-12T17:59:40.917Z,10.40
2023-02-12T18:02:08.161Z,10.32
2023-02-12T18:04:35.807Z,8.40
2023-02-12T18:07:06.152Z,8.97
2023-02-12T18:09:33.062Z,8.52
2023-02-12T18:11:59.630Z,8.98
2023-02-12T18:14:25.957Z,9.82
2023-02-12T18:16:52.365Z,9.93
2023-02-12T18:19:18.726Z,9.53
2023-02-12T18:21:45.057Z,9.05
2023-02-12T18:24:11.503Z,9.32
2023-02-12T18:26:37.803Z,8.40
2023-02-12T18:29:04.155Z,8.43
2023-02-12T18:31:30.714Z,9.20
2023-02-12T18:33:57.053Z,9.27
2023-02-12T18:36:23.685Z,8.15
2023-02-12T18:38:51.431Z,9.00
2023-02-12T18:41:22.120Z,8.20
2023-02-12T18:43:48.810Z,8.43
2023-02-12T18:46:18.192Z,8.25
2023-02-12T18:48:45.059Z,8.35
2023-02-12T18:51:15.812Z,8.25
2023-02-12T18:53:43.102Z,9.80
2023-02-12T18:56:12.498Z,9.37
2023-02-12T18:58:39.510Z,9.02
2023-02-12T19:01:20.068Z,9.40
2023-02-12T19:03:48.547Z,8.75
2023-02-12T19:06:15.438Z,10.40
2023-02-12T19:08:43.315Z,8.73
2023-02-12T19:11:11.418Z,10.68
2023-02-12T19:13:38.990Z,9.25
2023-02-12T19:16:11.389Z,10.10
2023-02-12T19:18:38.194Z,11.15
2023-02-12T19:21:16.266Z,10.17
2023-02-12T19:23:43.009Z,9.82
2023-02-12T19:26:12.496Z,11.20
2023-02-12T19:28:39.537Z,11.32
2023-02-12T19:31:15.664Z,13.48
2023-02-12T19:33:43.156Z,11.57
2023-02-12T19:36:11.403Z,12.70
2023-02-12T19:38:38.502Z,11.13
2023-02-12T19:41:07.078Z,11.93
2023-02-12T19:43:33.730Z,11.10
2023-02-12T19:46:09.502Z,10.77
2023-02-12T19:48:36.455Z,10.65
2023-02-12T19:51:03.712Z,11.00
2023-02-12T19:53:30.256Z,10.15
2023-02-12T19:56:04.234Z,11.15
2023-02-12T19:58:31.154Z,12.50
2023-02-12T20:00:58.469Z,10.60
2023-02-12T20:03:26.190Z,10.73
2023-02-12T20:06:05.099Z,12.20
2023-02-12T20:08:33.027Z,12.57
2023-02-12T20:11:02.351Z,12.00
2023-02-12T20:13:28.817Z,12.40
2023-02-12T20:15:55.273Z,11.50
2023-02-12T20:18:21.631Z,11.52
2023-02-12T20:20:52.463Z,13.52
2023-02-12T20:23:18.987Z,12.43
2023-02-12T20:25:46.302Z,12.95
2023-02-12T20:28:12.680Z,14.05
2023-02-12T20:30:40.949Z,13.77
2023-02-12T20:33:07.367Z,13.68
2023-02-12T20:35:36.759Z,12.80
2023-02-12T20:38:05.054Z,14.05
2023-02-12T20:40:31.589Z,15.93
2023-02-12T20:42:58.067Z,16.45
2023-02-12T20:45:25.038Z,17.05
2023-02-12T20:47:51.782Z,14.80
2023-02-12T20:50:18.589Z,14.70
2023-02-12T20:52:44.979Z,14.30
2023-02-12T20:55:11.309Z,14.75
2023-02-12T20:57:37.925Z,14.82
2023-02-12T21:00:04.829Z,14.97
2023-02-12T21:02:31.141Z,13.57
2023-02-12T21:04:57.490Z,15.07
2023-02-12T21:07:23.821Z,14.55
2023-02-12T21:09:50.221Z,14.63
2023-02-12T21:12:16.558Z,14.33
2023-02-12T21:14:42.992Z,16.08
2023-02-12T21:17:09.311Z,14.32
2023-02-12T21:19:36.811Z,15.10
2023-02-12T21:22:03.170Z,14.18
2023-02-12T21:24:29.516Z,14.47
2023-02-12T21:26:56.160Z,14.13
2023-02-12T21:29:23.295Z,14.00
2023-02-12T21:31:50.841Z,14.25
2023-02-12T21:34:20.907Z,14.40
2023-02-12T21:36:48.976Z,13.20
2023-02-12T21:39:24.693Z,14.40
2023-02-12T21:41:54.527Z,14.20
2023-02-12T21:44:26.205Z,14.27
2023-02-12T21:46:55.964Z,13.93
2023-02-12T21:49:25.030Z,14.13
2023-02-12T21:51:53.566Z,14.95
2023-02-12T21:54:20.761Z,14.30
2023-02-12T21:56:54.317Z,14.38
2023-02-12T21:59:21.158Z,15.15
2023-02-12T22:01:50.970Z,14.00
2023-02-12T22:04:20.642Z,13.38
2023-02-12T22:06:50.263Z,13.60
2023-02-12T22:09:18.594Z,13.60
2023-02-12T22:11:45.282Z,13.82
2023-02-12T22:14:15.744Z,14.20
2023-02-12T22:16:42.845Z,12.18
2023-02-12T22:19:09.660Z,13.43
2023-02-12T22:21:39.418Z,13.60
2023-02-12T22:24:07.801Z,14.45
2023-02-12T22:26:38.256Z,13.17
2023-02-12T22:29:08.471Z,13.05
2023-02-12T22:31:38.199Z,12.98
2023-02-12T22:34:11.196Z,13.25
2023-02-12T22:36:41.597Z,12.93
2023-02-12T22:39:08.822Z,12.93
2023-02-12T22:41:35.339Z,13.50
2023-02-12T22:44:05.012Z,12.02
2023-02-12T22:46:32.146Z,12.25
2023-02-12T22:48:58.883Z,12.13
2023-02-12T22:51:28.035Z,13.10
2023-02-12T22:53:57.405Z,12.80
2023-02-12T22:56:25.238Z,12.02
2023-02-12T22:59:00.461Z,12.32
2023-02-12T23:01:31.622Z,12.45
2023-02-12T23:03:58.460Z,12.33
2023-02-12T23:06:27.521Z,12.10
2023-02-12T23:08:57.866Z,12.10
2023-02-12T23:11:25.233Z,13.02
2023-02-12T23:13:52.257Z,13.95
2023-02-12T23:16:18.803Z,13.03
2023-02-12T23:18:45.118Z,13.13
2023-02-12T23:21:11.715Z,12.80
2023-02-12T23:23:38.177Z,11.93
2023-02-12T23:26:04.840Z,13.23
2023-02-12T23:28:31.530Z,13.17
2023-02-12T23:30:58.623Z,12.15
2023-02-12T23:33:25.330Z,12.43
2023-02-12T23:35:51.694Z,11.68
2023-02-12T23:38:18.409Z,12.68
2023-02-12T23:40:44.805Z,12.27
2023-02-12T23:43:11.193Z,12.80
2023-02-12T23:45:37.668Z,13.13
2023-02-12T23:48:04.354Z,12.10
2023-02-12T23:50:30.764Z,12.40
2023-02-12T23:53:01.945Z,12.50
2023-02-12T23:55:28.553Z,12.25
2023-02-12T23:57:54.987Z,12.50
